Time;durP1;ratioP1;P1;durP2;ratioP2;P2;SDS_P1;SDS_P2;PMS_P1;PMS_P2;Temp;Humidity;BMP_temperature;BMP_pressure;BME280_temperature;BME280_humidity;BME280_pressure;Samples;Min_cycle;Max_cycle;Signal;HPM_P1;HPM_P2
2024/01/16 00:02:09;;;;;;;8.57;4.78;;;;;;;-0.12;81.49;99365.03;5975307;23;20016;-83
2024/01/16 00:04:37;;;;;;;11.98;5.13;;;;;;;-0.09;81.66;99375.28;5999511;23;20404;-83
2024/01/16 00:07:04;;;;;;;15.98;6.13;;;;;;;-0.25;81.56;99366.59;5953170;23;20466;-82
2024/01/16 00:09:34;;;;;;;8.60;5.03;;;;;;;-0.13;81.66;99375.53;5975807;23;20023;-83
2024/01/16 00:12:03;;;;;;;12.02;5.30;;;;;;;-0.09;81.85;99379.69;5998885;23;20064;-84
2024/01/16 00:14:30;;;;;;;11.35;4.95;;;;;;;-0.09;81.65;99390.13;5999688;23;20034;-84
2024/01/16 00:16:57;;;;;;;7.88;4.78;;;;;;;-0.08;81.68;99390.00;5975967;23;20587;-84
2024/01/16 00:19:24;;;;;;;11.63;5.75;;;;;;;-0.08;81.64;99390.00;5975071;23;20023;-84
2024/01/16 00:21:51;;;;;;;19.80;8.05;;;;;;;-0.05;81.54;99384.66;5952884;23;20027;-83
2024/01/16 00:24:18;;;;;;;13.10;6.40;;;;;;;-0.06;81.76;99388.19;5975884;23;20027;-83
2024/01/16 00:26:46;;;;;;;11.02;4.60;;;;;;;-0.05;81.56;99394.22;5976706;23;20020;-83
2024/01/16 00:29:13;;;;;;;9.45;4.75;;;;;;;-0.03;81.60;99387.16;5975656;23;20047;-84
2024/01/16 00:31:39;;;;;;;13.07;5.20;;;;;;;0.00;81.59;99392.25;5976204;23;20107;-84
2024/01/16 00:34:06;;;;;;;11.07;5.13;;;;;;;-0.01;81.38;99387.94;5953337;23;20043;-84
2024/01/16 00:36:33;;;;;;;13.30;5.22;;;;;;;0.00;81.27;99392.25;5953017;23;20099;-84
2024/01/16 00:39:00;;;;;;;11.38;4.82;;;;;;;-0.01;81.22;99395.78;5999637;23;20027;-84
2024/01/16 00:41:27;;;;;;;8.43;4.85;;;;;;;-0.03;81.02;99397.63;5976704;23;20028;-83
2024/01/16 00:43:53;;;;;;;18.40;6.63;;;;;;;-0.04;81.13;99406.38;6001290;23;20030;-83
2024/01/16 00:46:20;;;;;;;11.55;5.18;;;;;;;-0.05;80.91;99400.31;5975662;23;20095;-83
2024/01/16 00:48:48;;;;;;;12.57;5.85;;;;;;;-0.04;80.75;99420.28;5977586;23;20031;-83
2024/01/16 00:51:15;;;;;;;14.10;5.80;;;;;;;-0.08;80.67;99410.06;5954577;23;20864;-83
2024/01/16 00:53:42;;;;;;;16.98;5.68;;;;;;;-0.13;80.67;99410.28;5977681;23;20060;-83
2024/01/16 00:56:10;;;;;;;9.38;4.57;;;;;;;-0.24;80.24;99407.41;5955911;23;20405;-82
2024/01/16 00:58:37;;;;;;;10.30;4.65;;;;;;;-0.32;80.51;99406.94;6001018;23;20520;-84
2024/01/16 01:01:04;;;;;;;7.80;4.22;;;;;;;-0.50;80.57;99412.16;5977118;23;20023;-83
2024/01/16 01:03:31;;;;;;;6.30;3.92;;;;;;;-0.61;80.59;99414.47;6001042;23;20087;-83
2024/01/16 01:06:00;;;;;;;7.35;4.50;;;;;;;-0.60;80.78;99417.91;6000581;23;20027;-83
2024/01/16 01:08:27;;;;;;;11.65;5.13;;;;;;;-0.63;80.40;99413.69;5977142;23;20494;-83
2024/01/16 01:10:54;;;;;;;9.90;4.28;;;;;;;-0.77;79.92;99419.56;5977362;23;20055;-82
2024/01/16 01:13:22;;;;;;;8.00;4.15;;;;;;;-0.82;79.48;99416.34;5954977;23;20474;-83
2024/01/16 01:15:48;;;;;;;8.45;4.28;;;;;;;-0.83;79.81;99425.09;5977619;23;20357;-82
2024/01/16 01:18:15;;;;;;;6.35;4.15;;;;;;;-0.88;79.69;99429.69;6000804;23;20118;-84
2024/01/16 01:20:42;;;;;;;9.98;4.80;;;;;;;-0.84;78.95;99432.97;5977414;23;20574;-83
2024/01/16 01:23:09;;;;;;;10.90;4.35;;;;;;;-0.92;79.52;99428.13;6000507;23;20107;-83
2024/01/16 01:25:36;;;;;;;7.18;4.25;;;;;;;-0.97;79.78;99423.13;5978133;23;20032;-83
2024/01/16 01:28:03;;;;;;;8.95;4.22;;;;;;;-1.01;79.94;99433.81;5976373;23;20032;-83
2024/01/16 01:30:31;;;;;;;6.32;4.00;;;;;;;-1.05;80.11;99433.09;5976800;23;20027;-84
2024/01/16 01:32:57;;;;;;;6.97;4.15;;;;;;;-1.10;80.25;99427.25;5954143;23;20376;-83
2024/01/16 01:35:25;;;;;;;6.18;3.88;;;;;;;-1.05;80.01;99432.25;5954759;23;20031;-83
2024/01/16 01:37:51;;;;;;;8.15;4.60;;;;;;;-1.06;80.05;99435.78;5953606;23;20024;-83
2024/01/16 01:40:18;;;;;;;9.48;5.38;;;;;;;-1.04;80.17;99436.53;5977514;23;20095;-84
2024/01/16 01:42:45;;;;;;;12.13;4.70;;;;;;;-1.04;81.10;99449.56;5954519;23;20345;-84
2024/01/16 01:45:12;;;;;;;8.93;4.38;;;;;;;-0.95;81.71;99452.56;5954329;23;20099;-83
2024/01/16 01:47:42;;;;;;;7.97;4.45;;;;;;;-0.92;81.68;99449.81;5978112;23;20091;-83
2024/01/16 01:50:10;;;;;;;8.32;4.43;;;;;;;-0.99;81.22;99445.84;5975286;23;20026;-83
2024/01/16 01:52:38;;;;;;;10.38;5.05;;;;;;;-1.05;81.24;99447.88;5977665;23;20703;-84
2024/01/16 01:55:11;;;;;;;11.93;5.00;;;;;;;-1.10;81.16;99443.72;5976594;23;20020;-84
2024/01/16 01:57:37;;;;;;;8.07;4.35;;;;;;;-1.11;80.75;99442.03;5977567;23;20099;-83
2024/01/16 02:00:06;;;;;;;10.23;5.03;;;;;;;-1.02;80.67;99445.13;5974817;23;20083;-83
2024/01/16 02:02:40;;;;;;;10.32;4.93;;;;;;;-1.00;80.86;99448.50;5978461;23;20024;-83
2024/01/16 02:05:07;;;;;;;12.85;5.25;;;;;;;-0.94;81.67;99459.50;5953778;23;20103;-83
2024/01/16 02:07:34;;;;;;;9.43;4.70;;;;;;;-0.94;81.66;99456.88;5977796;23;20015;-83
2024/01/16 02:10:01;;;;;;;9.45;4.82;;;;;;;-0.95;82.40;99459.56;5976198;23;20464;-83
2024/01/16 02:12:29;;;;;;;9.43;4.72;;;;;;;-0.92;82.39;99468.06;5977691;23;20034;-83
2024/01/16 02:14:55;;;;;;;9.25;4.70;;;;;;;-0.91;83.01;99476.75;5977292;23;20035;-83
2024/01/16 02:17:22;;;;;;;10.00;4.75;;;;;;;-0.83;82.50;99473.78;6000522;23;20099;-83
2024/01/16 02:19:49;;;;;;;8.70;4.57;;;;;;;-0.91;82.05;99468.94;5999527;23;20028;-83
2024/01/16 02:22:21;;;;;;;8.98;5.10;;;;;;;-0.93;82.45;99471.59;5977761;23;20082;-83
2024/01/16 02:24:48;;;;;;;11.98;4.82;;;;;;;-0.86;82.17;99468.72;5953965;23;23144;-83
2024/01/16 02:27:15;;;;;;;9.30;4.72;;;;;;;-0.94;82.54;99469.91;5976994;23;20058;-84
2024/01/16 02:29:45;;;;;;;10.68;5.28;;;;;;;-0.96;82.08;99476.97;5976363;23;20095;-83
2024/01/16 02:32:12;;;;;;;10.00;4.80;;;;;;;-1.07;81.57;99471.38;5976236;23;20051;-83
2024/01/16 02:34:41;;;;;;;13.65;6.35;;;;;;;-1.03;81.64;99474.72;5999825;23;20027;-82
2024/01/16 02:37:08;;;;;;;9.98;5.63;;;;;;;-0.98;82.03;99480.56;6000907;23;20964;-84
2024/01/16 02:39:35;;;;;;;10.88;5.15;;;;;;;-1.00;83.13;99483.22;5976095;23;20349;-84
2024/01/16 02:42:01;;;;;;;9.63;4.65;;;;;;;-1.02;83.90;99472.03;5953422;23;20032;-83
2024/01/16 02:44:28;;;;;;;10.23;5.30;;;;;;;-0.99;84.42;99477.13;5954164;23;20348;-84
2024/01/16 02:46:55;;;;;;;9.90;5.45;;;;;;;-1.00;84.86;99471.97;5976821;23;20031;-83
2024/01/16 02:49:22;;;;;;;10.25;5.35;;;;;;;-0.96;84.96;99470.91;5953528;23;20036;-84
2024/01/16 02:51:49;;;;;;;9.45;5.07;;;;;;;-0.94;84.95;99464.72;5953855;23;20023;-84
2024/01/16 02:54:16;;;;;;;11.63;5.70;;;;;;;-0.93;84.97;99457.72;5976851;23;20050;-83
2024/01/16 02:56:42;;;;;;;7.93;4.18;;;;;;;-0.88;85.17;99464.41;5977030;23;20043;-83
2024/01/16 02:59:09;;;;;;;11.00;5.10;;;;;;;-0.93;86.05;99462.94;5975405;23;20817;-83
2024/01/16 03:01:36;;;;;;;8.52;4.65;;;;;;;-0.90;85.91;99460.19;5976442;23;20028;-83
2024/01/16 03:04:03;;;;;;;11.77;5.82;;;;;;;-0.91;86.17;99464.56;5953575;23;20027;-83
2024/01/16 03:06:30;;;;;;;11.30;4.80;;;;;;;-0.91;86.06;99461.13;5953524;23;20056;-83
2024/01/16 03:08:57;;;;;;;11.55;4.82;;;;;;;-0.91;86.13;99466.31;5999099;23;20087;-83
2024/01/16 03:11:24;;;;;;;11.98;4.95;;;;;;;-0.92;85.80;99462.84;5977511;23;20079;-83
2024/01/16 03:13:53;;;;;;;11.45;5.65;;;;;;;-0.91;85.80;99463.72;5953116;23;20030;-83
2024/01/16 03:16:19;;;;;;;9.38;4.85;;;;;;;-0.96;86.09;99463.94;5976849;23;20031;-83
2024/01/16 03:18:47;;;;;;;8.73;4.82;;;;;;;-0.91;85.93;99469.78;5999941;23;20519;-83
2024/01/16 03:21:14;;;;;;;13.32;5.93;;;;;;;-0.86;85.48;99476.53;5953122;23;20055;-83
2024/01/16 03:23:41;;;;;;;10.13;5.70;;;;;;;-0.90;85.40;99473.22;5975921;23;20352;-83
2024/01/16 03:26:12;;;;;;;9.52;5.60;;;;;;;-0.91;85.22;99479.34;5999231;23;20026;-83
2024/01/16 03:28:39;;;;;;;10.73;5.15;;;;;;;-0.92;84.95;99478.50;5976051;23;20677;-83
2024/01/16 03:31:06;;;;;;;14.90;5.43;;;;;;;-0.92;84.87;99480.25;5952459;23;20082;-83
2024/01/16 03:33:41;;;;;;;11.88;5.18;;;;;;;-0.91;85.30;99479.34;5953167;23;20031;-83
2024/01/16 03:36:09;;;;;;;8.38;4.40;;;;;;;-0.94;85.05;99477.75;5999262;23;20035;-84
2024/01/16 03:38:39;;;;;;;10.27;5.57;;;;;;;-0.91;84.80;99482.81;5976158;23;20409;-83
2024/01/16 03:41:07;;;;;;;11.82;5.18;;;;;;;-0.90;84.83;99481.88;5953134;23;20034;-84
2024/01/16 03:43:34;;;;;;;10.68;5.47;;;;;;;-0.94;84.60;99482.09;5976250;23;20031;-83
2024/01/16 03:46:01;;;;;;;12.30;5.05;;;;;;;-0.96;84.12;99479.56;5975774;23;20027;-83
2024/01/16 03:48:28;;;;;;;11.02;5.78;;;;;;;-1.02;84.20;99481.59;5998671;23;20038;-84
2024/01/16 03:50:55;;;;;;;7.93;4.90;;;;;;;-1.11;83.79;99475.91;5929891;23;20340;-83
2024/01/16 03:53:22;;;;;;;12.95;5.25;;;;;;;-1.16;83.85;99480.50;6000312;23;20091;-84
2024/01/16 03:55:49;;;;;;;8.70;5.30;;;;;;;-1.14;83.20;99477.81;5976440;23;20026;-83
2024/01/16 03:58:16;;;;;;;6.82;4.38;;;;;;;-1.10;83.75;99480.19;5998603;23;20341;-84
2024/01/16 04:00:44;;;;;;;12.30;6.47;;;;;;;-1.09;83.90;99483.66;5975590;23;20047;-83
2024/01/16 04:03:11;;;;;;;10.75;5.50;;;;;;;-1.16;83.61;99477.03;5975414;23;20409;-84
2024/01/16 04:05:38;;;;;;;11.60;5.35;;;;;;;-1.15;83.30;99470.91;5953124;23;20102;-83
2024/01/16 04:08:05;;;;;;;11.40;5.63;;;;;;;-1.12;83.78;99479.44;5975778;23;20023;-84
2024/01/16 04:10:32;;;;;;;11.00;5.95;;;;;;;-1.14;84.03;99476.06;5952518;23;20042;-84
2024/01/16 04:13:02;;;;;;;12.52;6.05;;;;;;;-1.07;83.98;99473.16;5998430;23;20172;-82
2024/01/16 04:15:29;;;;;;;11.45;6.25;;;;;;;-1.06;84.22;99472.25;5975756;23;20036;-83
2024/01/16 04:17:56;;;;;;;14.13;6.72;;;;;;;-1.12;84.23;99471.63;5951931;23;20034;-85
2024/01/16 04:20:22;;;;;;;9.80;5.70;;;;;;;-1.10;83.66;99466.31;5951228;23;20030;-83
2024/01/16 04:22:49;;;;;;;11.63;6.18;;;;;;;-1.16;83.49;99464.84;5999140;23;20031;-83
2024/01/16 04:25:16;;;;;;;14.75;6.28;;;;;;;-1.14;83.95;99462.19;5952565;23;20028;-82
2024/01/16 04:27:43;;;;;;;10.57;5.82;;;;;;;-1.17;84.33;99468.38;5952746;23;20344;-83
2024/01/16 04:30:10;;;;;;;10.70;5.70;;;;;;;-1.25;85.39;99482.66;5952036;23;20024;-83
2024/01/16 04:32:36;;;;;;;10.52;6.13;;;;;;;-1.29;85.21;99476.75;5947255;23;20032;-83
2024/01/16 04:35:04;;;;;;;12.13;6.57;;;;;;;-1.27;84.99;99471.47;5948072;23;20414;-83
2024/01/16 04:37:30;;;;;;;11.63;5.70;;;;;;;-1.26;85.04;99491.41;5972095;23;20047;-83
2024/01/16 04:39:59;;;;;;;12.38;6.78;;;;;;;-1.22;85.58;99488.59;5924683;23;20024;-83
2024/01/16 04:42:25;;;;;;;12.27;6.40;;;;;;;-1.22;85.59;99486.00;5948691;23;20081;-83
2024/01/16 04:44:52;;;;;;;14.32;6.60;;;;;;;-1.19;85.61;99483.25;5925399;23;20024;-83
2024/01/16 04:47:19;;;;;;;12.50;7.05;;;;;;;-1.27;86.08;99490.56;5948131;23;20068;-83
2024/01/16 04:49:46;;;;;;;13.25;6.10;;;;;;;-1.14;85.62;99483.03;5946866;23;20039;-83
2024/01/16 04:52:13;;;;;;;14.52;6.57;;;;;;;-1.16;85.98;99487.47;5942362;23;20460;-83
2024/01/16 04:54:40;;;;;;;12.18;6.63;;;;;;;-1.21;86.38;99481.63;5947529;23;20080;-83
2024/01/16 04:57:07;;;;;;;10.50;6.60;;;;;;;-1.21;86.47;99490.28;5924555;23;20016;-82
2024/01/16 04:59:34;;;;;;;12.40;6.18;;;;;;;-1.23;86.37;99492.09;5924744;23;20016;-85
2024/01/16 05:02:01;;;;;;;12.05;6.50;;;;;;;-1.20;86.29;99483.28;5972533;23;20032;-85
2024/01/16 05:04:27;;;;;;;13.93;6.47;;;;;;;-1.22;86.70;99488.59;5948065;23;20115;-86
2024/01/16 05:06:55;;;;;;;11.00;6.50;;;;;;;-1.17;86.83;99484.03;5970549;23;20020;-86
2024/01/16 05:09:21;;;;;;;14.68;6.80;;;;;;;-1.10;86.83;99484.56;5924066;23;20028;-85
2024/01/16 05:11:49;;;;;;;13.48;7.10;;;;;;;-1.16;87.14;99471.84;5974405;23;20023;-85
2024/01/16 05:14:16;;;;;;;21.65;10.80;;;;;;;-1.16;86.79;99471.84;5952757;23;20742;-86
2024/01/16 05:16:42;;;;;;;15.85;8.18;;;;;;;-1.08;86.39;99480.13;5951819;23;20024;-85
2024/01/16 05:19:09;;;;;;;10.82;6.28;;;;;;;-1.15;86.57;99469.13;5951160;23;20020;-86
2024/01/16 05:21:36;;;;;;;15.25;6.75;;;;;;;-1.13;87.14;99467.31;5975308;23;20019;-86
2024/01/16 05:24:03;;;;;;;16.33;6.10;;;;;;;-1.14;87.35;99470.00;5998247;23;20108;-86
2024/01/16 05:26:29;;;;;;;14.57;6.90;;;;;;;-1.17;86.70;99465.78;5976308;23;20020;-85
2024/01/16 05:28:56;;;;;;;15.63;8.90;;;;;;;-1.21;86.41;99471.19;5997834;23;20024;-84
2024/01/16 05:31:23;;;;;;;14.65;6.32;;;;;;;-1.25;86.00;99470.47;5951607;23;20019;-83
2024/01/16 05:33:50;;;;;;;15.05;7.03;;;;;;;-1.24;86.09;99455.72;5976151;23;20524;-85
2024/01/16 05:36:17;;;;;;;15.63;6.57;;;;;;;-1.25;86.06;99457.44;5977492;23;20091;-85
2024/01/16 05:38:43;;;;;;;18.75;7.70;;;;;;;-1.32;85.94;99456.91;5954191;23;20027;-85
2024/01/16 05:41:10;;;;;;;12.65;7.43;;;;;;;-1.31;85.89;99458.59;5999258;23;20060;-86
2024/01/16 05:43:37;;;;;;;13.07;7.40;;;;;;;-1.36;85.63;99465.75;5976903;23;20023;-85
2024/01/16 05:46:05;;;;;;;17.20;9.20;;;;;;;-1.42;84.93;99462.63;5977157;23;20489;-84
2024/01/16 05:48:31;;;;;;;16.92;8.00;;;;;;;-1.40;85.25;99458.16;5999958;23;20034;-84
2024/01/16 05:50:59;;;;;;;15.98;7.85;;;;;;;-1.43;85.40;99459.13;5976146;23;20099;-84
2024/01/16 05:53:26;;;;;;;13.27;5.90;;;;;;;-1.42;85.26;99442.63;6000616;23;20027;-85
2024/01/16 05:55:53;;;;;;;16.45;7.55;;;;;;;-1.39;85.29;99455.50;5947686;23;20048;-84
2024/01/16 05:58:20;;;;;;;12.98;6.90;;;;;;;-1.37;85.45;99450.22;5952618;23;20585;-84
2024/01/16 06:00:47;;;;;;;12.73;6.57;;;;;;;-1.43;84.97;99438.31;5999736;23;20042;-84
2024/01/16 06:03:14;;;;;;;11.88;6.00;;;;;;;-1.42;84.65;99439.19;5976383;23;20076;-85
2024/01/16 06:05:41;;;;;;;12.30;6.80;;;;;;;-1.46;83.98;99448.03;5975641;23;20341;-84
2024/01/16 06:08:08;;;;;;;13.80;6.57;;;;;;;-1.55;83.24;99431.06;5975865;23;20042;-84
2024/01/16 06:10:34;;;;;;;11.63;6.13;;;;;;;-1.58;82.26;99429.47;5953368;23;20162;-84
2024/01/16 06:13:01;;;;;;;11.10;6.20;;;;;;;-1.67;81.58;99434.22;5952726;23;20028;-85
2024/01/16 06:15:28;;;;;;;10.40;5.53;;;;;;;-1.72;81.28;99425.78;5953804;23;20027;-85
2024/01/16 06:17:54;;;;;;;12.13;5.63;;;;;;;-1.77;81.27;99426.81;5953208;23;20026;-85
2024/01/16 06:20:23;;;;;;;12.20;6.22;;;;;;;-1.61;81.73;99429.56;5977028;23;20023;-85
2024/01/16 06:22:51;;;;;;;16.95;6.30;;;;;;;-1.68;82.72;99433.38;5976593;23;20030;-85
2024/01/16 06:25:17;;;;;;;14.45;5.80;;;;;;;-1.77;81.70;99434.63;5976000;23;20027;-85
2024/01/16 06:27:44;;;;;;;10.82;6.00;;;;;;;-1.83;82.53;99426.22;5976905;23;20039;-85
2024/01/16 06:30:11;;;;;;;11.25;6.80;;;;;;;-1.70;83.39;99432.59;5976394;23;20027;-85
2024/01/16 06:32:39;;;;;;;13.43;7.05;;;;;;;-1.73;84.60;99431.88;5953211;23;20043;-85
2024/01/16 06:35:06;;;;;;;17.50;6.43;;;;;;;-1.73;84.78;99424.94;5975972;23;20038;-85
2024/01/16 06:37:33;;;;;;;18.88;7.13;;;;;;;-1.67;84.94;99429.03;5953805;23;20031;-85
2024/01/16 06:39:59;;;;;;;28.70;15.18;;;;;;;-1.67;85.34;99429.84;5953051;23;20106;-86
2024/01/16 06:42:26;;;;;;;25.73;11.10;;;;;;;-1.62;85.35;99430.50;5999244;23;20754;-85
2024/01/16 06:44:53;;;;;;;16.10;8.68;;;;;;;-1.64;85.50;99428.88;5976700;23;20023;-86
2024/01/16 06:47:20;;;;;;;26.00;10.82;;;;;;;-1.68;85.58;99429.91;5998983;23;20027;-86
2024/01/16 06:49:47;;;;;;;17.58;7.75;;;;;;;-1.66;86.13;99426.34;5976143;23;20127;-86
2024/01/16 06:52:14;;;;;;;16.52;7.25;;;;;;;-1.66;85.85;99415.91;5973975;23;20135;-86
2024/01/16 06:54:41;;;;;;;19.55;8.15;;;;;;;-1.68;85.38;99412.56;5976485;23;20020;-86
2024/01/16 06:57:07;;;;;;;14.90;8.20;;;;;;;-1.70;85.40;99413.53;5977251;23;20020;-86
2024/01/16 06:59:34;;;;;;;13.38;7.22;;;;;;;-1.69;84.98;99423.88;5975400;23;20023;-85
2024/01/16 07:02:01;;;;;;;15.00;7.43;;;;;;;-1.60;84.71;99427.84;5953354;23;20027;-86
2024/01/16 07:04:28;;;;;;;13.98;7.82;;;;;;;-1.67;84.94;99426.41;6000130;23;20048;-86
2024/01/16 07:06:54;;;;;;;15.10;7.50;;;;;;;-1.62;84.87;99420.09;5975924;23;20032;-86
2024/01/16 07:09:21;;;;;;;14.65;7.25;;;;;;;-1.72;84.45;99431.81;5952207;23;20402;-85
2024/01/16 07:11:48;;;;;;;13.90;7.47;;;;;;;-1.71;84.92;99428.28;5952564;23;20080;-86
2024/01/16 07:14:15;;;;;;;15.25;7.80;;;;;;;-1.70;84.60;99422.19;5976282;23;20027;-86
2024/01/16 07:16:43;;;;;;;15.00;7.32;;;;;;;-1.69;84.85;99426.47;5976275;23;20023;-86
2024/01/16 07:19:10;;;;;;;22.83;11.15;;;;;;;-1.66;85.27;99428.94;5998375;23;20024;-86
2024/01/16 07:21:37;;;;;;;21.23;10.32;;;;;;;-1.60;84.99;99428.69;5952980;23;20059;-86
2024/01/16 07:24:04;;;;;;;21.92;10.52;;;;;;;-1.67;85.13;99422.06;5999494;23;20039;-85
2024/01/16 07:26:31;;;;;;;15.30;8.98;;;;;;;-1.64;85.14;99411.50;5953562;23;20016;-86
2024/01/16 07:28:58;;;;;;;16.33;8.63;;;;;;;-1.70;85.35;99426.56;5975799;23;20102;-86
2024/01/16 07:31:25;;;;;;;18.58;9.32;;;;;;;-1.77;84.79;99429.41;5999598;23;20031;-86
2024/01/16 07:33:52;;;;;;;15.88;7.97;;;;;;;-1.73;84.61;99435.34;5976324;23;20032;-86
2024/01/16 07:36:19;;;;;;;11.85;6.93;;;;;;;-1.81;83.97;99427.84;5976705;23;20027;-86
2024/01/16 07:38:46;;;;;;;11.32;7.15;;;;;;;-1.82;83.79;99433.97;5975236;23;20019;-84
2024/01/16 07:41:13;;;;;;;13.57;7.50;;;;;;;-1.78;83.96;99434.69;5998794;23;20047;-86
2024/01/16 07:43:40;;;;;;;13.95;8.00;;;;;;;-1.75;84.28;99427.59;5976211;23;20027;-86
2024/01/16 07:46:07;;;;;;;22.33;8.98;;;;;;;-1.79;84.90;99426.03;5975364;23;20091;-86
2024/01/16 07:48:33;;;;;;;18.95;7.75;;;;;;;-1.68;85.02;99429.91;5975930;23;20024;-86
2024/01/16 07:51:00;;;;;;;16.85;8.13;;;;;;;-1.77;84.95;99433.78;5975878;23;20024;-85
2024/01/16 07:53:27;;;;;;;16.95;8.90;;;;;;;-1.76;84.95;99435.47;5976860;23;20050;-86
2024/01/16 07:55:54;;;;;;;30.23;12.00;;;;;;;-1.83;84.53;99439.25;5975263;23;20055;-86
2024/01/16 07:58:21;;;;;;;19.45;8.10;;;;;;;-1.79;84.46;99446.03;5975335;23;20027;-86
2024/01/16 08:00:49;;;;;;;16.20;7.28;;;;;;;-1.79;84.32;99430.41;5975660;23;20024;-87
2024/01/16 08:03:15;;;;;;;19.88;8.57;;;;;;;-1.79;84.16;99435.59;5999455;23;20026;-86
2024/01/16 08:05:42;;;;;;;23.00;9.50;;;;;;;-1.77;84.43;99446.81;5975485;23;20035;-85
2024/01/16 08:08:09;;;;;;;28.02;14.10;;;;;;;-1.68;84.51;99443.81;5975945;23;20693;-86
2024/01/16 08:10:36;;;;;;;26.55;12.82;;;;;;;-1.56;84.07;99442.38;5976253;23;20547;-86
2024/01/16 08:13:03;;;;;;;30.30;15.68;;;;;;;-1.61;83.76;99441.75;5975149;23;20098;-84
2024/01/16 08:15:30;;;;;;;37.33;16.50;;;;;;;-1.57;84.18;99448.53;5999396;23;20028;-86
2024/01/16 08:17:57;;;;;;;21.17;10.98;;;;;;;-1.63;84.49;99452.25;5974847;23;20106;-86
2024/01/16 08:20:24;;;;;;;21.90;8.82;;;;;;;-1.57;84.82;99454.56;5975773;23;20079;-86
2024/01/16 08:22:50;;;;;;;22.23;8.88;;;;;;;-1.55;84.75;99455.34;5952507;23;20364;-87
2024/01/16 08:25:17;;;;;;;19.02;8.60;;;;;;;-1.54;84.77;99450.97;5999452;23;20334;-86
2024/01/16 08:27:44;;;;;;;19.27;9.02;;;;;;;-1.60;84.73;99459.91;5953069;23;20483;-86
2024/01/16 08:30:12;;;;;;;19.90;9.55;;;;;;;-1.62;85.33;99466.09;5974637;23;20062;-86
2024/01/16 08:32:39;;;;;;;22.42;10.70;;;;;;;-1.58;85.86;99472.84;5975834;23;20102;-85
2024/01/16 08:35:06;;;;;;;32.00;12.57;;;;;;;-1.55;85.80;99470.13;5975699;23;20655;-86
2024/01/16 08:37:34;;;;;;;27.83;12.88;;;;;;;-1.51;85.57;99466.47;5975764;23;20024;-86
2024/01/16 08:40:03;;;;;;;25.65;13.15;;;;;;;-1.38;85.43;99469.34;5974619;23;20115;-86
2024/01/16 08:42:30;;;;;;;20.25;11.07;;;;;;;-1.42;85.65;99476.47;5975619;23;20024;-85
2024/01/16 08:44:57;;;;;;;21.60;10.73;;;;;;;-1.34;85.46;99479.56;5998408;23;20047;-86
2024/01/16 08:47:24;;;;;;;18.40;10.23;;;;;;;-1.36;84.97;99465.75;5952638;23;20095;-86
2024/01/16 08:49:52;;;;;;;21.73;10.82;;;;;;;-1.31;85.00;99483.78;5974526;23;20046;-86
2024/01/16 08:52:19;;;;;;;19.17;10.00;;;;;;;-1.29;85.05;99481.97;5999665;23;20388;-86
2024/01/16 08:54:45;;;;;;;22.55;10.70;;;;;;;-1.30;85.11;99495.91;5998123;23;20023;-86
2024/01/16 08:57:13;;;;;;;16.27;7.63;;;;;;;-1.35;85.29;99490.91;5975488;23;20680;-85
2024/01/16 08:59:43;;;;;;;13.65;8.38;;;;;;;-1.23;84.98;99502.53;5976281;23;20028;-86
2024/01/16 09:02:10;;;;;;;14.55;7.75;;;;;;;-1.28;85.23;99494.06;5953136;23;20409;-86
2024/01/16 09:04:37;;;;;;;15.43;8.00;;;;;;;-1.18;85.35;99502.31;5975033;23;20540;-86
2024/01/16 09:07:05;;;;;;;17.75;9.25;;;;;;;-1.11;85.14;99511.56;5952996;23;20050;-86
2024/01/16 09:09:32;;;;;;;21.00;10.50;;;;;;;-1.06;85.01;99501.75;6000074;23;20083;-86
2024/01/16 09:11:59;;;;;;;17.58;10.70;;;;;;;-1.06;84.99;99503.53;5953469;23;20711;-86
2024/01/16 09:14:26;;;;;;;19.20;10.02;;;;;;;-0.98;84.85;99506.63;6000205;23;20030;-85
2024/01/16 09:16:54;;;;;;;16.55;8.73;;;;;;;-0.97;84.45;99510.91;5950041;23;20044;-86
2024/01/16 09:19:21;;;;;;;19.02;9.00;;;;;;;-0.92;84.28;99511.53;5972048;23;20020;-86
2024/01/16 09:21:48;;;;;;;18.63;9.68;;;;;;;-0.93;84.25;99512.47;5948894;23;20087;-85
2024/01/16 09:24:15;;;;;;;18.75;9.93;;;;;;;-0.91;84.16;99506.25;5949286;23;20076;-86
2024/01/16 09:26:42;;;;;;;17.73;10.00;;;;;;;-0.98;84.33;99514.44;5950011;23;20048;-86
2024/01/16 09:29:09;;;;;;;18.52;9.30;;;;;;;-0.91;84.24;99523.66;5948608;23;20525;-85
2024/01/16 09:31:36;;;;;;;20.83;9.60;;;;;;;-0.91;84.06;99516.69;5949671;23;20016;-86
2024/01/16 09:34:04;;;;;;;15.70;8.73;;;;;;;-0.89;83.81;99519.19;5926589;23;20028;-86
2024/01/16 09:36:36;;;;;;;18.20;8.60;;;;;;;-0.82;84.28;99523.22;6000595;23;20496;-86
2024/01/16 09:39:07;;;;;;;17.63;7.95;;;;;;;-0.78;84.11;99522.16;5998841;23;20028;-86
2024/01/16 09:41:52;;;;;;;14.40;6.97;;;;;;;-0.79;84.10;99520.50;6000235;23;20023;-86
2024/01/16 09:44:19;;;;;;;16.45;8.18;;;;;;;-0.72;84.05;99519.25;6001332;23;20512;-86
2024/01/16 09:46:49;;;;;;;14.93;7.97;;;;;;;-0.66;83.78;99532.03;6000818;23;20016;-86
2024/01/16 09:49:17;;;;;;;17.55;9.18;;;;;;;-0.63;83.44;99525.81;5977187;23;20028;-86
2024/01/16 09:51:45;;;;;;;17.90;9.75;;;;;;;-0.61;83.23;99520.53;5977466;23;20504;-86
2024/01/16 09:54:12;;;;;;;18.75;8.90;;;;;;;-0.59;83.53;99516.91;5976270;23;20032;-86
2024/01/16 09:56:43;;;;;;;17.02;8.02;;;;;;;-0.55;83.19;99507.19;5977243;23;20107;-86
2024/01/16 09:59:12;;;;;;;20.50;9.70;;;;;;;-0.51;83.11;99496.56;5976704;23;20456;-86
2024/01/16 10:01:39;;;;;;;19.92;9.60;;;;;;;-0.50;83.38;99486.97;5999936;23;20031;-86
2024/01/16 10:04:06;;;;;;;18.10;8.75;;;;;;;-0.48;83.72;99482.53;5999949;23;20056;-86
2024/01/16 10:06:33;;;;;;;17.40;8.63;;;;;;;-0.42;83.47;99483.97;6001037;23;20041;-87
2024/01/16 10:09:00;;;;;;;14.50;8.27;;;;;;;-0.41;83.56;99477.84;5975651;23;20051;-86
2024/01/16 10:11:29;;;;;;;19.60;8.13;;;;;;;-0.37;83.38;99475.00;5976571;23;20051;-86
2024/01/16 10:13:58;;;;;;;17.55;7.88;;;;;;;-0.33;83.57;99479.16;5953527;23;20091;-84
2024/01/16 10:16:59;;;;;;;19.65;9.55;;;;;;;-0.33;82.84;99488.72;5954529;23;20019;-86
2024/01/16 10:19:27;;;;;;;16.30;9.07;;;;;;;-0.30;82.69;99488.59;5998833;23;20020;-86
2024/01/16 10:22:12;;;;;;;18.15;8.23;;;;;;;-0.28;83.10;99491.94;5934163;23;20040;-86
2024/01/16 10:24:40;;;;;;;17.02;9.18;;;;;;;-0.32;82.89;99487.81;5949157;23;20032;-86
2024/01/16 10:27:07;;;;;;;19.00;9.15;;;;;;;-0.39;82.58;99492.50;5926267;23;20024;-87
2024/01/16 10:29:34;;;;;;;17.83;7.13;;;;;;;-0.34;82.40;99498.31;5948662;23;20036;-87
2024/01/16 10:32:28;;;;;;;16.88;8.13;;;;;;;-0.40;81.72;99496.03;5978292;23;20696;-87
2024/01/16 10:35:10;;;;;;;14.73;8.18;;;;;;;-0.35;81.50;99501.03;5929587;23;20408;-87
2024/01/16 10:37:51;;;;;;;15.83;7.40;;;;;;;-0.34;81.66;99493.09;6000417;23;20024;-87
2024/01/16 10:40:25;;;;;;;15.95;6.95;;;;;;;-0.27;81.87;99483.22;5953282;23;20028;-86
2024/01/16 10:43:03;;;;;;;10.95;6.72;;;;;;;-0.24;81.46;99478.69;5976211;23;20028;-87
2024/01/16 10:45:30;;;;;;;16.58;7.15;;;;;;;-0.17;81.48;99475.78;5999845;23;20348;-87
2024/01/16 10:48:05;;;;;;;13.00;6.90;;;;;;;-0.20;80.65;99473.31;5975527;23;20027;-87
2024/01/16 10:50:34;;;;;;;14.60;7.97;;;;;;;-0.15;80.92;99476.53;5999988;23;20027;-87
2024/01/16 10:53:05;;;;;;;15.15;8.07;;;;;;;-0.20;81.02;99474.19;5976233;23;20035;-87
2024/01/16 10:55:45;;;;;;;20.42;10.23;;;;;;;-0.25;81.38;99463.13;6000343;23;20019;-87
2024/01/16 10:58:13;;;;;;;22.38;10.23;;;;;;;-0.18;81.87;99466.25;5998952;23;20102;-87
2024/01/16 11:00:41;;;;;;;21.13;10.95;;;;;;;-0.20;81.49;99457.66;5976649;23;20019;-87
2024/01/16 11:03:11;;;;;;;17.45;10.23;;;;;;;-0.22;81.29;99449.91;5976254;23;20024;-87
2024/01/16 11:05:39;;;;;;;16.13;8.70;;;;;;;-0.19;81.41;99443.69;6000087;23;20060;-86
2024/01/16 11:08:08;;;;;;;19.85;9.70;;;;;;;-0.18;80.96;99443.59;5952911;23;20027;-86
2024/01/16 11:10:36;;;;;;;18.98;9.68;;;;;;;-0.21;80.57;99443.75;5975982;23;20019;-87
2024/01/16 11:13:04;;;;;;;26.90;10.68;;;;;;;-0.27;80.58;99442.31;5999361;23;20055;-87
2024/01/16 11:15:32;;;;;;;19.27;10.35;;;;;;;-0.25;80.81;99443.09;5976489;23;20104;-88
2024/01/16 11:17:59;;;;;;;22.00;10.50;;;;;;;-0.21;80.70;99441.16;5998281;23;20099;-86
2024/01/16 11:20:27;;;;;;;19.15;9.80;;;;;;;-0.18;80.65;99440.16;5999729;23;20409;-87
2024/01/16 11:23:14;;;;;;;16.05;9.18;;;;;;;-0.12;80.86;99439.88;5979627;23;20028;-86
2024/01/16 11:25:41;;;;;;;15.68;9.52;;;;;;;-0.14;80.48;99439.94;5976395;23;20603;-87
2024/01/16 11:28:10;;;;;;;20.67;10.40;;;;;;;-0.11;80.66;99438.94;5975805;23;20016;-86
2024/01/16 11:30:36;;;;;;;17.45;9.30;;;;;;;-0.12;80.72;99439.88;6000013;23;20027;-87